createdAt,value
2022-12-22T00:02:06.721Z,15.77
2022-12-22T00:04:52.808Z,16.23
2022-12-22T00:07:39.059Z,17.57
2022-12-22T00:10:26.123Z,16.70
2022-12-22T00:13:12.025Z,16.07
2022-12-22T00:15:59.915Z,14.93
2022-12-22T00:18:45.973Z,15.87
2022-12-22T00:21:32.420Z,17.43
2022-12-22T00:24:18.638Z,15.93
2022-12-22T00:27:04.946Z,18.57
2022-12-22T00:29:55.957Z,15.97
2022-12-22T00:32:53.571Z,18.10
2022-12-22T00:35:43.521Z,17.80
2022-12-22T00:38:34.895Z,18.50
2022-12-22T00:41:20.982Z,16.47
2022-12-22T00:44:07.204Z,17.03
2022-12-22T00:46:57.662Z,16.90
2022-12-22T00:49:47.395Z,17.10
2022-12-22T00:52:34.963Z,16.13
2022-12-22T00:55:22.429Z,16.03
2022-12-22T00:58:08.394Z,17.20
2022-12-22T01:00:54.291Z,18.47
2022-12-22T01:03:40.116Z,17.73
2022-12-22T01:06:37.754Z,17.10
2022-12-22T01:09:24.523Z,15.53
2022-12-22T01:12:10.583Z,19.13
2022-12-22T01:14:56.505Z,17.70
2022-12-22T01:17:42.752Z,15.23
2022-12-22T01:20:29.916Z,17.37
2022-12-22T01:23:17.153Z,17.17
2022-12-22T01:26:02.916Z,17.30
2022-12-22T01:28:49.118Z,14.67
2022-12-22T01:31:42.902Z,17.53
2022-12-22T01:34:29.125Z,14.80
2022-12-22T01:37:15.318Z,17.43
2022-12-22T01:40:02.962Z,16.03
2022-12-22T01:42:51.836Z,16.37
2022-12-22T01:45:41.240Z,16.70
2022-12-22T01:48:30.781Z,15.23
2022-12-22T01:51:22.069Z,16.60
2022-12-22T01:54:08.703Z,15.60
2022-12-22T01:56:57.344Z,17.60
2022-12-22T01:59:43.389Z,17.33
2022-12-22T02:02:30.448Z,15.73
2022-12-22T02:05:19.919Z,16.40
2022-12-22T02:08:23.450Z,17.90
2022-12-22T02:11:29.121Z,15.20
2022-12-22T02:14:30.087Z,15.70
2022-12-22T02:17:25.660Z,17.07
2022-12-22T02:20:38.799Z,14.73
2022-12-22T02:23:31.776Z,17.27
2022-12-22T02:26:23.879Z,16.07
2022-12-22T02:29:12.006Z,16.80
2022-12-22T02:32:00.297Z,16.83
2022-12-22T02:34:46.343Z,16.30
2022-12-22T02:37:40.169Z,16.17
2022-12-22T02:40:38.807Z,17.53
2022-12-22T02:43:35.278Z,16.40
2022-12-22T02:46:28.804Z,16.90
2022-12-22T02:49:19.909Z,13.30
2022-12-22T02:52:10.079Z,15.80
2022-12-22T02:54:56.919Z,15.30
2022-12-22T02:57:43.089Z,13.13
2022-12-22T03:00:30.172Z,15.37
2022-12-22T03:03:18.819Z,16.17
2022-12-22T03:06:05.315Z,15.03
2022-12-22T03:08:51.273Z,14.63
2022-12-22T03:11:37.432Z,14.00
2022-12-22T03:14:23.929Z,17.90
2022-12-22T03:17:10.164Z,15.17
2022-12-22T03:19:57.659Z,16.43
2022-12-22T03:22:43.440Z,12.80
2022-12-22T03:25:29.613Z,15.83
2022-12-22T03:28:03.356Z,15.47
2022-12-22T03:30:31.927Z,14.03
2022-12-22T03:33:00.735Z,15.33
2022-12-22T03:35:30.848Z,14.17
2022-12-22T03:38:03.620Z,13.50
2022-12-22T03:40:33.150Z,15.83
2022-12-22T03:43:19.059Z,14.90
2022-12-22T03:46:05.175Z,14.23
2022-12-22T03:48:33.946Z,15.37
2022-12-22T03:51:04.178Z,15.70
2022-12-22T03:53:33.151Z,13.47
2022-12-22T03:56:07.548Z,13.73
2022-12-22T03:58:37.050Z,17.93
2022-12-22T04:01:07.830Z,16.17
2022-12-22T04:03:36.606Z,15.13
2022-12-22T04:06:06.790Z,15.97
2022-12-22T04:08:35.593Z,16.93
2022-12-22T04:11:21.872Z,15.10
2022-12-22T04:13:50.470Z,13.17
2022-12-22T04:16:19.146Z,16.40
2022-12-22T04:18:47.785Z,16.17
2022-12-22T04:21:18.024Z,15.27
2022-12-22T04:23:46.782Z,12.13
2022-12-22T04:26:15.353Z,14.97
2022-12-22T04:28:44.033Z,13.67
2022-12-22T04:31:12.673Z,16.00
2022-12-22T04:33:41.295Z,14.27
2022-12-22T04:36:10.936Z,15.33
2022-12-22T04:38:41.363Z,15.77
2022-12-22T04:41:10.163Z,16.17
2022-12-22T04:43:39.031Z,12.17
2022-12-22T04:46:08.385Z,14.73
2022-12-22T04:48:37.386Z,16.47
2022-12-22T04:51:06.378Z,14.93
2022-12-22T04:53:35.353Z,15.03
2022-12-22T04:56:07.898Z,15.17
2022-12-22T04:58:36.905Z,15.10
2022-12-22T05:01:13.544Z,14.43
2022-12-22T05:03:42.699Z,15.73
2022-12-22T05:06:11.797Z,15.97
2022-12-22T05:08:40.602Z,12.90
2022-12-22T05:11:11.023Z,15.23
2022-12-22T05:13:39.873Z,15.50
2022-12-22T05:16:10.829Z,17.47
2022-12-22T05:18:40.253Z,16.77
2022-12-22T05:21:11.906Z,17.90
2022-12-22T05:23:40.577Z,15.93
2022-12-22T05:26:11.368Z,19.00
2022-12-22T05:28:40.110Z,15.50
2022-12-22T05:31:10.602Z,15.97
2022-12-22T05:33:39.270Z,16.93
2022-12-22T05:36:08.507Z,16.73
2022-12-22T05:38:37.133Z,16.83
2022-12-22T05:41:06.387Z,16.60
2022-12-22T05:43:37.284Z,15.13
2022-12-22T05:46:07.142Z,16.93
2022-12-22T05:48:39.041Z,16.90
2022-12-22T05:51:09.098Z,17.30
2022-12-22T05:53:38.186Z,17.70
2022-12-22T05:56:08.311Z,17.77
2022-12-22T05:58:39.528Z,19.17
2022-12-22T06:01:09.021Z,17.50
2022-12-22T06:03:37.770Z,17.37
2022-12-22T06:06:06.888Z,15.60
2022-12-22T06:08:35.579Z,16.50
2022-12-22T06:11:04.449Z,17.67
2022-12-22T06:13:33.256Z,18.10
2022-12-22T06:16:03.657Z,18.27
2022-12-22T06:18:32.716Z,16.70
2022-12-22T06:21:01.701Z,15.90
2022-12-22T06:23:30.676Z,16.77
2022-12-22T06:26:01.268Z,15.40
2022-12-22T06:28:30.087Z,16.73
2022-12-22T06:30:59.007Z,14.83
2022-12-22T06:33:29.141Z,15.50
2022-12-22T06:35:59.428Z,17.85
2022-12-22T06:38:28.835Z,17.30
2022-12-22T06:40:57.671Z,16.67
2022-12-22T06:43:25.843Z,13.63
2022-12-22T06:45:55.075Z,15.40
2022-12-22T06:48:24.142Z,14.13
2022-12-22T06:50:59.289Z,15.27
2022-12-22T06:53:28.279Z,12.00
2022-12-22T06:55:57.196Z,15.07
2022-12-22T06:58:25.906Z,13.37
2022-12-22T07:00:57.681Z,13.40
2022-12-22T07:03:26.824Z,12.07
2022-12-22T07:05:57.153Z,15.17
2022-12-22T07:08:25.920Z,13.03
2022-12-22T07:11:00.952Z,14.53
2022-12-22T07:13:33.578Z,13.77
2022-12-22T07:16:03.258Z,13.77
2022-12-22T07:18:33.634Z,14.63
2022-12-22T07:21:05.696Z,16.70
2022-12-22T07:23:35.259Z,14.27
2022-12-22T07:26:05.244Z,17.10
2022-12-22T07:28:35.297Z,13.37
2022-12-22T07:31:04.696Z,15.53
2022-12-22T07:33:33.882Z,14.03
2022-12-22T07:36:09.307Z,15.60
2022-12-22T07:38:40.278Z,14.20
2022-12-22T07:41:32.694Z,17.20
2022-12-22T07:44:01.282Z,15.33
2022-12-22T07:46:32.991Z,16.10
2022-12-22T07:49:19.668Z,17.47
2022-12-22T07:51:50.007Z,17.43
2022-12-22T07:54:19.100Z,16.43
2022-12-22T07:56:48.352Z,17.47
2022-12-22T07:59:18.285Z,16.20
2022-12-22T08:01:47.137Z,16.97
2022-12-22T08:04:16.917Z,17.90
2022-12-22T08:06:45.583Z,17.73
2022-12-22T08:09:20.206Z,18.13
2022-12-22T08:11:50.190Z,17.43
2022-12-22T08:14:18.958Z,20.23
2022-12-22T08:16:47.709Z,18.77
2022-12-22T08:19:16.406Z,19.97
2022-12-22T08:21:52.115Z,19.40
2022-12-22T08:24:23.525Z,18.93
2022-12-22T08:26:56.905Z,20.43
2022-12-22T08:29:30.305Z,17.30
2022-12-22T08:31:59.509Z,17.80
2022-12-22T08:34:28.473Z,19.20
2022-12-22T08:37:00.800Z,17.67
2022-12-22T08:39:34.388Z,20.57
2022-12-22T08:42:06.961Z,20.27
2022-12-22T08:44:37.444Z,17.37
2022-12-22T08:47:10.251Z,19.93
2022-12-22T08:49:43.534Z,19.60
2022-12-22T08:52:18.041Z,19.53
2022-12-22T08:54:49.001Z,20.37
2022-12-22T08:57:17.708Z,20.10
2022-12-22T08:59:48.184Z,19.10
2022-12-22T09:02:17.010Z,22.77
2022-12-22T09:04:45.890Z,22.00
2022-12-22T09:07:14.500Z,20.83
2022-12-22T09:09:43.199Z,21.93
2022-12-22T09:12:13.324Z,20.60
2022-12-22T09:14:42.239Z,20.43
2022-12-22T09:17:11.168Z,21.47
2022-12-22T09:19:39.967Z,18.67
2022-12-22T09:22:09.453Z,21.83
2022-12-22T09:24:38.310Z,20.23
2022-12-22T09:27:09.278Z,21.67
2022-12-22T09:29:39.780Z,18.87
2022-12-22T09:32:09.027Z,20.13
2022-12-22T09:34:37.841Z,19.57
2022-12-22T09:37:06.956Z,17.23
2022-12-22T09:39:35.609Z,18.40
2022-12-22T09:42:04.606Z,19.73
2022-12-22T09:44:35.797Z,20.10
2022-12-22T09:47:14.399Z,18.13
2022-12-22T09:49:43.330Z,18.43
2022-12-22T09:52:25.055Z,20.17
2022-12-22T09:54:54.092Z,19.37
2022-12-22T09:57:24.973Z,20.47
2022-12-22T09:59:54.010Z,18.30
2022-12-22T10:02:33.896Z,20.63
2022-12-22T10:05:14.892Z,16.37
2022-12-22T10:07:44.514Z,17.13
2022-12-22T10:10:25.079Z,19.60
2022-12-22T10:12:56.340Z,15.80
2022-12-22T10:15:25.762Z,18.30
2022-12-22T10:18:11.575Z,16.17
2022-12-22T10:20:40.926Z,18.40
2022-12-22T10:23:18.602Z,17.70
2022-12-22T10:28:57.262Z,16.37
2022-12-22T10:31:30.010Z,17.43
2022-12-22T10:34:12.669Z,18.77
2022-12-22T10:36:43.890Z,18.90
2022-12-22T10:39:14.353Z,17.13
2022-12-22T10:41:45.821Z,19.30
2022-12-22T10:44:22.442Z,17.30
2022-12-22T10:46:52.904Z,16.00
2022-12-22T10:49:25.802Z,16.97
2022-12-22T10:51:56.506Z,16.23
2022-12-22T10:54:33.456Z,13.80
2022-12-22T10:57:04.375Z,14.47
2022-12-22T10:59:34.117Z,13.20
2022-12-22T11:02:31.293Z,12.13
2022-12-22T11:05:07.129Z,13.83
2022-12-22T11:07:37.971Z,15.00
2022-12-22T11:10:18.896Z,13.80
2022-12-22T11:13:00.456Z,12.03
2022-12-22T11:15:34.831Z,14.30
2022-12-22T11:18:14.304Z,13.93
2022-12-22T11:20:55.656Z,12.23
2022-12-22T11:23:34.604Z,12.10
2022-12-22T11:26:12.623Z,12.27
2022-12-22T11:29:04.242Z,12.77
2022-12-22T11:31:48.824Z,13.97
2022-12-22T11:34:36.205Z,13.63
2022-12-22T11:37:20.972Z,11.83
2022-12-22T11:39:59.185Z,12.60
2022-12-22T11:42:46.802Z,13.50
2022-12-22T11:45:39.097Z,13.27
2022-12-22T11:48:36.781Z,12.90
2022-12-22T11:51:12.808Z,12.93
2022-12-22T11:54:14.681Z,12.70
2022-12-22T11:56:47.891Z,12.57
2022-12-22T11:59:34.642Z,12.77
2022-12-22T12:02:41.459Z,11.13
2022-12-22T12:05:27.302Z,11.53
2022-12-22T12:08:05.436Z,11.27
2022-12-22T12:10:42.089Z,11.80
2022-12-22T12:13:26.384Z,12.83
2022-12-22T12:16:09.417Z,10.77
2022-12-22T12:18:49.852Z,12.10
2022-12-22T12:21:29.047Z,13.87
2022-12-22T12:24:17.718Z,12.80
2022-12-22T12:26:53.996Z,12.23
2022-12-22T12:29:27.526Z,13.03
2022-12-22T12:32:02.546Z,10.90
2022-12-22T12:34:35.145Z,12.37
2022-12-22T12:37:09.818Z,11.50
2022-12-22T12:39:49.817Z,12.30
2022-12-22T12:42:29.106Z,12.97
2022-12-22T12:44:57.963Z,11.50
2022-12-22T12:47:29.182Z,13.67
2022-12-22T12:50:03.683Z,12.23
2022-12-22T12:53:15.624Z,12.30
2022-12-22T12:56:08.246Z,14.90
2022-12-22T12:58:55.222Z,15.70
2022-12-22T13:01:58.827Z,16.37
2022-12-22T13:05:12.961Z,14.83
2022-12-22T13:08:21.246Z,15.17
2022-12-22T13:12:01.225Z,14.57
2022-12-22T13:14:12.777Z,16.10
2022-12-22T13:16:41.504Z,15.57
2022-12-22T13:19:21.248Z,16.00
2022-12-22T13:21:53.967Z,14.47
2022-12-22T13:24:29.008Z,14.73
2022-12-22T13:27:17.086Z,17.17
2022-12-22T13:29:48.686Z,14.17
2022-12-22T13:32:23.797Z,16.70
2022-12-22T13:37:50.268Z,14.83
2022-12-22T13:40:21.758Z,15.37
2022-12-22T13:42:53.385Z,13.87
2022-12-22T13:45:38.027Z,15.07
2022-12-22T13:48:13.578Z,12.50
2022-12-22T13:50:46.295Z,12.83
2022-12-22T13:53:58.255Z,14.93
2022-12-22T13:56:14.586Z,14.20
2022-12-22T13:58:45.981Z,14.37
2022-12-22T14:01:19.197Z,14.73
2022-12-22T14:04:00.315Z,12.23
2022-12-22T14:06:31.653Z,13.47
2022-12-22T14:09:18.276Z,11.77
2022-12-22T14:11:52.425Z,13.27
2022-12-22T14:14:25.939Z,13.27
2022-12-22T14:16:58.931Z,14.77
2022-12-22T14:19:31.718Z,14.53
2022-12-22T14:22:07.570Z,12.17
2022-12-22T14:24:44.095Z,12.73
2022-12-22T14:27:20.473Z,15.07
2022-12-22T14:29:49.365Z,14.43
2022-12-22T14:32:38.875Z,13.87
2022-12-22T14:35:23.801Z,15.53
2022-12-22T14:37:54.096Z,15.07
2022-12-22T14:40:33.760Z,14.27
2022-12-22T14:43:05.071Z,15.03
2022-12-22T14:45:34.553Z,15.00
2022-12-22T14:48:10.418Z,14.07
2022-12-22T14:50:40.192Z,15.97
2022-12-22T14:53:08.797Z,15.27
2022-12-22T14:55:41.050Z,13.90
2022-12-22T14:58:14.951Z,14.33
2022-12-22T15:00:46.079Z,15.17
2022-12-22T15:03:32.352Z,16.43
2022-12-22T15:06:25.879Z,15.07
2022-12-22T15:08:57.612Z,16.57
2022-12-22T15:11:26.389Z,16.20
2022-12-22T15:13:55.148Z,16.37
2022-12-22T15:16:24.960Z,20.67
2022-12-22T15:18:55.088Z,18.47
2022-12-22T15:21:24.078Z,17.70
2022-12-22T15:23:52.615Z,15.73
2022-12-22T15:26:21.367Z,15.53
2022-12-22T15:28:50.141Z,17.23
2022-12-22T15:31:19.397Z,16.70
2022-12-22T15:33:48.179Z,16.17
2022-12-22T15:36:18.277Z,16.03
2022-12-22T15:38:46.931Z,14.40
2022-12-22T15:41:15.489Z,15.07
2022-12-22T15:43:59.863Z,18.07
2022-12-22T15:46:28.894Z,17.57
2022-12-22T15:48:57.782Z,16.63
2022-12-22T15:51:30.768Z,16.73
2022-12-22T15:54:00.704Z,16.67
2022-12-22T15:56:33.374Z,17.83
2022-12-22T15:59:02.973Z,16.90
2022-12-22T16:01:31.796Z,16.57
2022-12-22T16:04:00.634Z,17.47
2022-12-22T16:06:32.001Z,18.37
2022-12-22T16:09:01.195Z,16.50
2022-12-22T16:11:30.006Z,17.73
2022-12-22T16:13:58.603Z,16.10
2022-12-22T16:16:27.502Z,16.70
2022-12-22T16:18:56.154Z,17.80
2022-12-22T16:21:30.586Z,20.33
2022-12-22T16:24:03.922Z,19.40
2022-12-22T16:26:32.797Z,18.67
2022-12-22T16:29:01.711Z,20.43
2022-12-22T16:31:30.533Z,18.53
2022-12-22T16:33:59.336Z,16.87
2022-12-22T16:36:27.934Z,18.53
2022-12-22T16:38:56.711Z,17.80
2022-12-22T16:41:27.038Z,19.37
2022-12-22T16:44:05.299Z,17.67
2022-12-22T16:46:38.023Z,20.50
2022-12-22T16:49:09.259Z,17.97
2022-12-22T16:51:45.801Z,20.63
2022-12-22T16:54:15.181Z,19.33
2022-12-22T16:56:47.014Z,18.47
2022-12-22T16:59:16.799Z,17.53
2022-12-22T17:01:49.455Z,20.10
2022-12-22T17:04:21.272Z,21.73
2022-12-22T17:06:51.209Z,21.23
2022-12-22T17:09:22.281Z,21.67
2022-12-22T17:11:54.213Z,17.90
2022-12-22T17:14:29.682Z,19.63
2022-12-22T17:17:00.856Z,19.03
2022-12-22T17:19:29.542Z,22.90
2022-12-22T17:21:59.771Z,19.67
2022-12-22T17:24:29.440Z,20.93
2022-12-22T17:27:02.179Z,19.83
2022-12-22T17:29:31.354Z,21.37
2022-12-22T17:32:00.003Z,19.57
2022-12-22T17:34:28.803Z,20.43
2022-12-22T17:36:59.339Z,16.63
2022-12-22T17:39:27.995Z,19.60
2022-12-22T17:41:57.663Z,18.17
2022-12-22T17:44:28.720Z,18.80
2022-12-22T17:46:57.654Z,18.77
2022-12-22T17:49:26.343Z,22.40
2022-12-22T17:51:54.993Z,18.70
2022-12-22T17:54:26.081Z,20.80
2022-12-22T17:56:59.612Z,17.30
2022-12-22T17:59:30.120Z,17.43
2022-12-22T18:01:58.980Z,17.97
2022-12-22T18:04:27.661Z,21.40
2022-12-22T18:06:56.900Z,16.53
2022-12-22T18:09:27.357Z,19.37
2022-12-22T18:11:56.139Z,18.23
2022-12-22T18:14:24.904Z,18.63
2022-12-22T18:16:55.104Z,17.93
2022-12-22T18:19:23.820Z,18.07
2022-12-22T18:21:52.584Z,18.60
2022-12-22T18:24:21.173Z,17.90
2022-12-22T18:26:49.890Z,18.30
2022-12-22T18:29:20.095Z,16.73
2022-12-22T18:31:48.958Z,16.67
2022-12-22T18:34:19.229Z,18.77
2022-12-22T18:36:48.419Z,19.07
2022-12-22T18:39:20.251Z,17.97
2022-12-22T18:41:49.344Z,13.10
2022-12-22T18:44:18.700Z,15.97
2022-12-22T18:46:48.800Z,19.20
2022-12-22T18:49:19.099Z,18.20
2022-12-22T18:51:47.817Z,15.43
2022-12-22T18:54:28.880Z,16.00
2022-12-22T18:56:57.589Z,13.80
2022-12-22T18:59:29.135Z,18.70
2022-12-22T19:02:05.797Z,17.60
2022-12-22T19:04:35.863Z,18.27
2022-12-22T19:07:04.655Z,16.43
2022-12-22T19:09:33.313Z,18.17
2022-12-22T19:12:02.204Z,17.33
2022-12-22T19:14:32.908Z,18.07
2022-12-22T19:17:02.945Z,19.57
2022-12-22T19:19:31.626Z,17.07
2022-12-22T19:22:01.671Z,17.47
2022-12-22T19:24:30.337Z,17.53
2022-12-22T19:26:59.021Z,18.33
2022-12-22T19:29:27.722Z,16.87
2022-12-22T19:31:56.491Z,16.30
2022-12-22T19:34:25.401Z,15.83
2022-12-22T19:36:54.028Z,16.93
2022-12-22T19:39:24.040Z,16.27
2022-12-22T19:41:54.144Z,14.77
2022-12-22T19:44:26.690Z,14.47
2022-12-22T19:46:57.076Z,14.90
2022-12-22T19:49:27.767Z,14.63
2022-12-22T19:51:56.867Z,14.97
2022-12-22T19:54:28.080Z,14.13
2022-12-22T19:56:57.908Z,16.07
2022-12-22T19:59:35.676Z,13.80
2022-12-22T20:02:24.614Z,15.03
2022-12-22T20:04:54.471Z,14.53
2022-12-22T20:07:24.812Z,17.67
2022-12-22T20:09:55.526Z,15.90
2022-12-22T20:12:29.740Z,15.53
2022-12-22T20:14:58.811Z,15.93
2022-12-22T20:17:27.572Z,16.10
2022-12-22T20:19:56.256Z,14.60
2022-12-22T20:22:25.282Z,13.07
2022-12-22T20:24:55.611Z,14.90
2022-12-22T20:27:28.185Z,12.73
2022-12-22T20:29:56.961Z,13.67
2022-12-22T20:32:28.302Z,14.70
2022-12-22T20:34:57.419Z,14.87
2022-12-22T20:37:27.679Z,13.83
2022-12-22T20:39:57.808Z,13.47
2022-12-22T20:42:27.201Z,15.20
2022-12-22T20:45:03.469Z,13.23
2022-12-22T20:47:33.587Z,15.03
2022-12-22T20:50:02.497Z,13.83
2022-12-22T20:52:31.239Z,16.30
2022-12-22T20:55:01.425Z,14.83
2022-12-22T20:57:30.061Z,15.57
2022-12-22T20:59:58.737Z,16.00
2022-12-22T21:02:28.932Z,17.83
2022-12-22T21:04:58.261Z,16.17
2022-12-22T21:07:26.995Z,17.30
2022-12-22T21:09:56.851Z,15.53
2022-12-22T21:12:27.092Z,18.03
2022-12-22T21:14:55.867Z,19.63
2022-12-22T21:17:24.695Z,17.83
2022-12-22T21:19:53.313Z,18.00
2022-12-22T21:22:22.117Z,17.07
2022-12-22T21:24:50.719Z,16.27
2022-12-22T21:27:22.117Z,17.50
2022-12-22T21:29:52.077Z,17.33
2022-12-22T21:32:20.697Z,17.57
2022-12-22T21:34:49.446Z,18.40
2022-12-22T21:37:19.853Z,17.03
2022-12-22T21:39:48.756Z,18.57
2022-12-22T21:42:18.651Z,18.07
2022-12-22T21:44:47.689Z,16.67
2022-12-22T21:47:20.744Z,18.00
2022-12-22T21:49:49.925Z,17.83
2022-12-22T21:52:18.491Z,17.67
2022-12-22T21:54:47.590Z,17.57
2022-12-22T21:57:17.013Z,18.03
2022-12-22T21:59:45.803Z,18.23
2022-12-22T22:02:18.777Z,18.57
2022-12-22T22:04:54.232Z,18.93
2022-12-22T22:07:24.051Z,18.87
2022-12-22T22:09:52.891Z,18.50
2022-12-22T22:12:33.898Z,18.40
2022-12-22T22:15:02.676Z,17.80
2022-12-22T22:17:32.773Z,16.80
2022-12-22T22:20:01.443Z,18.30
2022-12-22T22:22:30.072Z,20.00
2022-12-22T22:24:58.691Z,17.93
2022-12-22T22:27:27.562Z,16.70
2022-12-22T22:29:56.421Z,17.17
2022-12-22T22:32:25.252Z,17.10
2022-12-22T22:34:55.489Z,16.63
2022-12-22T22:37:24.094Z,17.57
2022-12-22T22:39:52.974Z,18.27
2022-12-22T22:42:21.652Z,15.07
2022-12-22T22:44:50.319Z,16.60
2022-12-22T22:47:19.227Z,17.17
2022-12-22T22:49:47.885Z,16.20
2022-12-22T22:52:18.073Z,14.10
2022-12-22T22:54:46.721Z,16.83
2022-12-22T22:57:16.109Z,14.93
2022-12-22T22:59:44.778Z,17.03
2022-12-22T23:02:16.033Z,16.77
2022-12-22T23:04:45.422Z,14.80
2022-12-22T23:07:14.551Z,14.53
2022-12-22T23:09:44.787Z,14.73
2022-12-22T23:12:13.390Z,14.87
2022-12-22T23:14:42.208Z,13.90
2022-12-22T23:17:10.979Z,14.63
2022-12-22T23:19:40.101Z,14.70
2022-12-22T23:22:09.061Z,13.50
2022-12-22T23:24:37.840Z,14.33
2022-12-22T23:27:07.923Z,13.27
2022-12-22T23:29:37.358Z,14.13
2022-12-22T23:32:07.301Z,13.00
2022-12-22T23:34:35.963Z,13.03
2022-12-22T23:37:05.442Z,13.40
2022-12-22T23:39:34.080Z,12.90
2022-12-22T23:42:02.778Z,11.67
2022-12-22T23:44:32.751Z,11.43
2022-12-22T23:47:01.450Z,11.60
2022-12-22T23:49:30.196Z,12.53
2022-12-22T23:51:58.803Z,11.80
2022-12-22T23:54:29.484Z,12.53
2022-12-22T23:56:58.075Z,11.53
2022-12-22T23:59:28.883Z,15.03
